Detall de PIREP

Printer-friendly versionPDF version

[2008/08/26 15:57:00]
Flight IATA:CT3110
Pilot Number:037
Company ICAO:CAT
Aircraft Type:AT72/F
PAX:32
Departing Airport: LEBL
Destination Airport: LEPA
Alternate Airport:LEBL
Online: VATSIM
Route:LARPA B31 TOLSO
Flight Level:FL170
No Slew and time accel
No pause
Crash detect
Detect pilot in Cockpit between each 30 and 45 minutes
15:57 Zero fuel Weight: 40068 Lbs, Fuel Weight: 3359 Lbs
15:57 VATSIM:LEBL 261530Z 12008KT 9999 FEW020 BKN031 25/17 Q1020 NOSIG
15:57 VATSIM:LEPA 261530Z 22012KT 9999 BKN050 29/15 Q1019 NOSIG
16:00 Parking Brakes off
16:13 Take-off
16:13 Take off Weight: 43315 Lbs
16:13 Wind: 128? @ 006 Knots Heading: 067?
16:13 POS N41? 17? 46?? E002? 04? 33??
16:13 Flaps:1 at 127 Knots
16:13 Gear Up: 129 Knots
16:16 Flaps:0 at 187 Knots
16:26 TOC
16:26 Fuel Weight: 2797 Lb
16:28 Wind:142?@020 Knots Heading: 167? Ground Speed: 274 Knots Altitude 17194
ft
16:33 TOD
16:33 Fuel Weight: 2564 Lb
16:43 Wind:226?@015 Knots Heading: 171? Ground Speed: 272 Knots Altitude 6535 ft
16:50 Flaps:1 at 184 Knots
16:50 Gear Down: 178 Knots
16:51 Flaps:2 at 144 Knots
16:53 TouchDown:Rate -340 ft/min Speed: 133 Knots
16:53 VATSIM:LEPA 261630Z 23011KT 9999 SCT045 28/16 Q1019 NOSIG
16:53 Land
16:53 Wind:232?@011 Knots
16:53 Heading: 241?
16:53 Flight Duration: 00:40
16:53 Landing Weight: 42384 Lbs
16:53 POS N39? 32? 47?? E002? 44? 35??
16:57 Parking brakes on
16:57 Block to Block Duration: 00:57
16:57 Final Fuel: 2290 Lbls
16:57 Spent Fuel: 1069 Lbls
16:57 Flight Length: 89 NM
16:57 TOD Land Length: 67 NM

Exportar CSV

Powered by Drupal - Modified by Danger4k